Time;durP1;ratioP1;P1;durP2;ratioP2;P2;SDS_P1;SDS_P2;PMS_P1;PMS_P2;Temp;Humidity;BMP_temperature;BMP_pressure;BME280_temperature;BME280_humidity;BME280_pressure;Samples;Min_cycle;Max_cycle;Signal;HPM_P1;HPM_P2
2022/01/02 00:00:04;;;;;;;8.80;5.50;;;11.20;99.90;;;;;;5103992;28;20120;-66
2022/01/02 00:02:32;;;;;;;9.45;5.38;;;11.10;99.90;;;;;;5108089;28;20478;-67
2022/01/02 00:05:09;;;;;;;9.10;5.38;;;11.10;99.90;;;;;;5104351;28;20123;-66
2022/01/02 00:07:42;;;;;;;8.68;5.40;;;11.20;99.90;;;;;;5078438;28;20104;-67
2022/01/02 00:10:08;;;;;;;10.90;6.00;;;11.20;99.90;;;;;;5099213;28;20043;-66
2022/01/02 00:12:35;;;;;;;10.25;5.50;;;11.10;99.90;;;;;;5103311;28;20494;-66
2022/01/02 00:15:08;;;;;;;7.45;4.88;;;11.20;99.90;;;;;;5100998;28;20048;-66
2022/01/02 00:17:34;;;;;;;11.77;5.35;;;11.10;99.90;;;;;;5099555;28;20051;-66
2022/01/02 00:20:09;;;;;;;10.27;5.90;;;11.20;99.90;;;;;;5108553;28;20063;-66
2022/01/02 00:22:37;;;;;;;9.55;5.90;;;11.20;99.90;;;;;;5109716;28;20494;-66
2022/01/02 00:25:09;;;;;;;9.23;5.35;;;11.10;99.90;;;;;;5109527;28;20123;-65
2022/01/02 00:27:35;;;;;;;7.25;5.78;;;11.10;99.90;;;;;;5109898;28;20576;-66
2022/01/02 00:30:07;;;;;;;9.40;5.40;;;11.20;99.90;;;;;;5108521;28;20061;-66
2022/01/02 00:32:33;;;;;;;13.03;6.67;;;11.20;99.90;;;;;;5107654;28;20079;-66
2022/01/02 00:35:00;;;;;;;9.25;5.07;;;11.10;99.90;;;;;;5102046;28;20039;-66
2022/01/02 00:37:29;;;;;;;9.88;5.50;;;11.30;99.90;;;;;;5092959;28;20046;-66
2022/01/02 00:39:54;;;;;;;8.57;5.32;;;11.20;99.90;;;;;;5087598;28;20135;-66
2022/01/02 00:42:41;;;;;;;8.82;5.55;;;11.20;99.90;;;;;;5088284;28;20134;-66
2022/01/02 00:45:34;;;;;;;10.60;5.55;;;11.30;99.90;;;;;;5087798;28;20059;-66
2022/01/02 00:48:04;;;;;;;;;;;11.20;99.90;;;;;;5086817;28;20521;-66
2022/01/02 00:50:36;;;;;;;7.75;5.07;;;11.20;99.90;;;;;;5087989;28;19924;-66
2022/01/02 00:53:04;;;;;;;7.75;4.60;;;11.20;99.90;;;;;;5088864;28;20063;-66
2022/01/02 00:55:33;;;;;;;15.20;4.93;;;11.20;99.90;;;;;;5087769;28;20048;-66
2022/01/02 00:58:01;;;;;;;9.50;5.65;;;11.20;99.90;;;;;;5092605;28;20060;-66
2022/01/02 01:00:29;;;;;;;9.27;5.78;;;11.20;99.90;;;;;;5091314;28;20048;-66
2022/01/02 01:03:00;;;;;;;10.30;5.93;;;11.20;99.90;;;;;;5092934;28;20563;-65
2022/01/02 01:05:29;;;;;;;10.27;5.40;;;11.20;99.90;;;;;;5093241;28;20059;-65
2022/01/02 01:07:57;;;;;;;11.40;5.70;;;11.20;99.90;;;;;;5090737;28;20132;-66
2022/01/02 01:10:25;;;;;;;7.93;5.45;;;11.20;99.90;;;;;;5094604;28;20058;-66
2022/01/02 01:12:54;;;;;;;9.25;5.60;;;11.20;99.90;;;;;;5103397;28;20044;-66
2022/01/02 01:15:22;;;;;;;17.50;6.07;;;11.20;99.90;;;;;;5097698;28;20448;-66
2022/01/02 01:17:49;;;;;;;9.40;6.07;;;11.10;99.90;;;;;;5093347;28;20040;-66
2022/01/02 01:20:15;;;;;;;12.77;5.00;;;11.10;99.90;;;;;;5110827;28;20063;-66
2022/01/02 01:22:42;;;;;;;14.90;5.97;;;11.10;99.90;;;;;;5111235;28;20386;-66
2022/01/02 01:25:13;;;;;;;10.07;6.10;;;11.20;99.90;;;;;;5111733;28;20367;-66
2022/01/02 01:27:39;;;;;;;11.20;6.13;;;11.20;99.90;;;;;;5112282;28;20054;-66
2022/01/02 01:30:06;;;;;;;8.18;6.05;;;11.10;99.90;;;;;;5113144;28;20047;-66
2022/01/02 01:32:31;;;;;;;16.30;6.75;;;11.20;99.90;;;;;;5112442;28;20053;-66
2022/01/02 01:34:57;;;;;;;11.05;6.28;;;11.10;99.90;;;;;;5110757;28;20055;-65
2022/01/02 01:37:22;;;;;;;11.77;5.85;;;11.10;99.90;;;;;;5112688;28;20043;-65
2022/01/02 01:39:51;;;;;;;12.52;6.55;;;11.10;99.90;;;;;;5111322;28;20462;-66
2022/01/02 01:42:27;;;;;;;14.68;6.15;;;11.10;99.90;;;;;;5110761;28;20447;-66
2022/01/02 01:47:58;;;;;;;13.63;6.15;;;11.20;99.90;;;;;;5059762;28;20406;-66
2022/01/02 01:50:27;;;;;;;12.07;7.03;;;11.20;99.90;;;;;;5099301;28;20451;-66
2022/01/02 01:52:53;;;;;;;9.70;6.70;;;11.20;99.90;;;;;;5091855;28;20449;-66
2022/01/02 01:55:19;;;;;;;11.07;6.80;;;11.10;99.90;;;;;;5091518;28;20048;-66
2022/01/02 01:57:46;;;;;;;13.00;6.85;;;11.20;99.90;;;;;;5091792;28;20036;-66
2022/01/02 02:00:15;;;;;;;14.20;6.35;;;11.20;99.90;;;;;;5090591;28;20140;-66
2022/01/02 02:02:42;;;;;;;17.67;6.57;;;11.20;99.90;;;;;;5090790;28;20113;-66
2022/01/02 02:05:08;;;;;;;16.52;6.95;;;11.20;99.90;;;;;;5092024;28;20448;-66
2022/01/02 02:07:44;;;;;;;13.45;7.03;;;11.20;99.90;;;;;;5090996;28;20048;-66
2022/01/02 02:10:18;;;;;;;9.95;6.50;;;11.10;99.90;;;;;;5091025;28;20539;-66
2022/01/02 02:12:46;;;;;;;13.68;7.47;;;11.10;99.90;;;;;;5090065;28;20040;-66
2022/01/02 02:15:14;;;;;;;13.70;7.18;;;11.10;99.90;;;;;;5090393;28;20513;-66
2022/01/02 02:17:42;;;;;;;19.10;7.70;;;11.20;99.90;;;;;;5090640;28;20040;-66
2022/01/02 02:20:23;;;;;;;24.02;8.07;;;11.10;99.90;;;;;;5091461;28;20139;-66
2022/01/02 02:22:52;;;;;;;13.25;7.40;;;11.10;99.90;;;;;;5089624;28;20063;-66
2022/01/02 02:25:20;;;;;;;16.05;8.05;;;11.10;99.90;;;;;;5087969;28;20043;-65
2022/01/02 02:28:05;;;;;;;13.07;7.53;;;11.10;99.90;;;;;;5105814;28;20071;-66
2022/01/02 02:30:33;;;;;;;13.82;8.02;;;11.00;99.90;;;;;;5092298;28;20075;-65
2022/01/02 02:33:00;;;;;;;14.48;7.55;;;11.00;99.90;;;;;;5091552;28;20622;-66
2022/01/02 02:35:28;;;;;;;16.40;7.68;;;11.00;99.90;;;;;;5089957;28;20136;-66
2022/01/02 02:37:54;;;;;;;14.07;7.03;;;11.00;99.90;;;;;;5090411;28;20055;-66
2022/01/02 02:40:21;;;;;;;12.93;7.15;;;11.00;99.90;;;;;;5091290;28;20047;-66
2022/01/02 02:43:01;;;;;;;13.70;8.60;;;10.90;99.90;;;;;;5091037;28;20052;-66
2022/01/02 02:51:21;;;;;;;14.40;7.75;;;10.90;99.90;;;;;;5089476;28;20059;-66
2022/01/02 02:53:48;;;;;;;16.23;8.30;;;10.80;99.90;;;;;;5089241;28;20105;-66
2022/01/02 02:56:27;;;;;;;14.52;8.02;;;11.00;99.90;;;;;;5089542;28;20135;-65
2022/01/02 02:58:57;;;;;;;18.98;9.00;;;10.80;99.90;;;;;;5089858;28;20099;-66
2022/01/02 03:01:25;;;;;;;17.92;8.50;;;10.90;99.90;;;;;;5089755;28;20396;-66
2022/01/02 03:03:51;;;;;;;14.77;8.15;;;10.90;99.90;;;;;;5090467;28;20048;-65
2022/01/02 03:06:18;;;;;;;16.25;8.45;;;10.90;99.90;;;;;;5088823;28;20048;-66
2022/01/02 03:08:45;;;;;;;11.55;7.22;;;10.80;99.90;;;;;;5089047;28;20479;-66
2022/01/02 03:11:16;;;;;;;17.48;9.35;;;10.90;99.90;;;;;;5090433;28;20048;-66
2022/01/02 03:13:42;;;;;;;14.48;8.88;;;10.80;99.90;;;;;;5088397;28;20052;-66
2022/01/02 03:16:08;;;;;;;19.35;9.30;;;10.70;99.90;;;;;;5090614;28;20113;-65
2022/01/02 03:18:34;;;;;;;17.02;9.23;;;10.70;99.90;;;;;;5088838;28;20044;-66
2022/01/02 03:21:00;;;;;;;13.10;7.75;;;10.80;99.90;;;;;;5089419;28;20056;-66
2022/01/02 03:23:25;;;;;;;12.52;9.23;;;10.70;99.90;;;;;;5088986;28;20128;-66
2022/01/02 03:25:51;;;;;;;12.18;9.07;;;10.80;99.90;;;;;;5089982;28;20683;-66
2022/01/02 03:28:17;;;;;;;11.65;7.75;;;10.70;99.90;;;;;;5089887;28;20047;-66
2022/01/02 03:30:42;;;;;;;17.77;10.18;;;10.80;99.90;;;;;;5088564;28;20044;-66
2022/01/02 03:33:09;;;;;;;12.35;8.82;;;10.70;99.90;;;;;;5088857;28;20047;-66
2022/01/02 03:35:34;;;;;;;15.20;8.05;;;10.70;99.90;;;;;;5089391;28;20533;-66
2022/01/02 03:38:04;;;;;;;14.38;8.35;;;10.70;99.90;;;;;;5088614;28;20189;-66
2022/01/02 03:40:29;;;;;;;15.20;8.93;;;10.60;99.90;;;;;;5088958;28;20051;-66
2022/01/02 03:42:55;;;;;;;11.25;7.90;;;10.80;99.90;;;;;;5088816;28;20052;-66
2022/01/02 03:45:21;;;;;;;16.63;8.25;;;10.70;99.90;;;;;;5088756;28;20065;-66
2022/01/02 03:47:47;;;;;;;14.45;8.98;;;10.60;99.90;;;;;;5089154;28;20040;-66
2022/01/02 03:50:13;;;;;;;12.68;8.57;;;10.70;99.90;;;;;;5088892;28;20426;-66
2022/01/02 03:52:39;;;;;;;13.27;8.18;;;10.70;99.90;;;;;;5088405;28;20056;-66
2022/01/02 03:55:05;;;;;;;14.38;8.63;;;10.70;99.90;;;;;;5089245;28;20135;-66
2022/01/02 03:57:30;;;;;;;16.58;9.43;;;10.60;99.90;;;;;;5088502;28;20043;-66
2022/01/02 03:59:56;;;;;;;14.75;9.27;;;10.60;99.90;;;;;;5090044;28;20578;-66
2022/01/02 04:02:22;;;;;;;13.05;8.68;;;10.70;99.90;;;;;;5089159;28;20050;-66
2022/01/02 04:04:47;;;;;;;18.85;10.02;;;10.60;99.90;;;;;;5089686;28;20437;-66
2022/01/02 04:07:13;;;;;;;20.23;10.18;;;10.60;99.90;;;;;;5089919;28;20040;-66
2022/01/02 04:09:38;;;;;;;17.73;10.80;;;10.60;99.90;;;;;;5088734;28;20047;-66
2022/01/02 04:12:04;;;;;;;21.15;10.40;;;10.70;99.90;;;;;;5088585;28;20135;-66
2022/01/02 04:14:30;;;;;;;20.02;10.32;;;10.70;99.90;;;;;;5088175;28;20048;-66
2022/01/02 04:16:55;;;;;;;18.88;10.20;;;10.60;99.90;;;;;;5087728;28;20117;-65
2022/01/02 04:19:21;;;;;;;11.00;8.40;;;10.80;99.90;;;;;;5088147;28;20039;-67
2022/01/02 04:21:47;;;;;;;19.17;9.32;;;10.80;99.90;;;;;;5089641;28;20124;-66
2022/01/02 04:24:12;;;;;;;23.73;10.13;;;10.70;99.90;;;;;;5087475;28;20055;-65
2022/01/02 04:26:38;;;;;;;16.08;8.45;;;10.80;99.90;;;;;;5088423;28;20058;-66
2022/01/02 04:29:05;;;;;;;22.73;9.98;;;10.80;99.90;;;;;;5089995;28;20613;-66
2022/01/02 04:31:31;;;;;;;17.40;9.35;;;10.70;99.90;;;;;;5089953;28;20051;-66
2022/01/02 04:33:57;;;;;;;16.23;9.57;;;10.80;99.90;;;;;;5093749;28;20050;-66
2022/01/02 04:36:23;;;;;;;18.70;8.98;;;10.70;99.90;;;;;;5093504;28;20483;-66
2022/01/02 04:38:49;;;;;;;21.30;10.52;;;10.80;99.90;;;;;;5092478;28;20529;-66
2022/01/02 04:41:14;;;;;;;14.95;7.72;;;10.70;99.90;;;;;;5092213;28;20064;-66
2022/01/02 04:43:40;;;;;;;16.48;9.20;;;10.80;99.90;;;;;;5091470;28;20079;-66
2022/01/02 04:46:06;;;;;;;16.98;8.88;;;10.80;99.90;;;;;;5091689;28;20426;-66
2022/01/02 04:48:32;;;;;;;21.35;10.85;;;10.80;99.90;;;;;;5091787;28;20052;-65
2022/01/02 04:50:57;;;;;;;18.75;11.10;;;10.80;99.90;;;;;;5092616;28;20036;-66
2022/01/02 04:53:23;;;;;;;14.05;8.88;;;10.90;99.90;;;;;;5093114;28;20402;-66
2022/01/02 04:55:49;;;;;;;16.85;10.98;;;10.80;99.90;;;;;;5092810;28;20048;-66
2022/01/02 04:58:16;;;;;;;14.93;9.77;;;10.80;99.90;;;;;;5092698;28;20115;-66
2022/01/02 05:00:42;;;;;;;19.02;9.88;;;10.90;99.90;;;;;;5092783;28;20089;-65
2022/01/02 05:03:07;;;;;;;17.85;9.43;;;10.80;99.90;;;;;;5091548;28;20044;-66
2022/01/02 05:05:33;;;;;;;18.88;9.90;;;10.80;99.90;;;;;;5090738;28;20117;-66
2022/01/02 05:07:58;;;;;;;17.45;8.48;;;10.80;99.90;;;;;;5092957;28;20036;-66
2022/01/02 05:10:24;;;;;;;14.15;7.88;;;10.80;99.90;;;;;;5103602;28;20047;-66
2022/01/02 05:12:50;;;;;;;15.35;8.57;;;10.90;99.90;;;;;;5105838;28;20047;-66
2022/01/02 05:15:16;;;;;;;16.52;9.40;;;10.90;99.90;;;;;;5098802;28;20044;-66
2022/01/02 05:17:43;;;;;;;14.95;8.55;;;10.90;99.90;;;;;;5091963;28;20120;-66
2022/01/02 05:20:12;;;;;;;16.38;9.23;;;10.80;99.90;;;;;;5128305;27;20059;-66
2022/01/02 05:22:37;;;;;;;19.75;9.73;;;10.90;99.90;;;;;;5107056;28;20055;-66
2022/01/02 05:25:04;;;;;;;21.88;9.18;;;10.80;99.90;;;;;;5098221;28;20597;-66
2022/01/02 05:27:30;;;;;;;11.38;8.10;;;10.80;99.90;;;;;;5095739;28;20060;-66
2022/01/02 05:29:55;;;;;;;16.83;8.02;;;10.80;99.90;;;;;;5112965;28;20047;-66
2022/01/02 05:32:21;;;;;;;15.93;8.63;;;10.80;99.90;;;;;;5111771;28;20051;-66
2022/01/02 05:34:47;;;;;;;14.90;9.00;;;10.80;99.90;;;;;;5110494;28;20047;-66
2022/01/02 05:37:12;;;;;;;18.52;7.93;;;10.80;99.90;;;;;;5112614;28;20046;-66
2022/01/02 05:39:38;;;;;;;12.85;6.68;;;10.80;99.90;;;;;;5111106;28;20047;-66
2022/01/02 05:42:04;;;;;;;17.38;7.65;;;11.00;99.90;;;;;;5111763;28;20093;-66
2022/01/02 05:44:30;;;;;;;18.05;8.20;;;10.90;99.90;;;;;;5110121;28;20075;-66
2022/01/02 05:46:56;;;;;;;16.60;7.38;;;11.00;99.90;;;;;;5112777;28;20047;-66
2022/01/02 05:49:22;;;;;;;12.23;7.63;;;11.00;99.90;;;;;;5110737;28;20051;-66
2022/01/02 05:51:48;;;;;;;16.55;7.95;;;10.90;99.90;;;;;;5110976;28;20134;-66
2022/01/02 05:54:14;;;;;;;20.33;8.75;;;10.90;99.90;;;;;;5110427;28;20123;-66
2022/01/02 05:56:39;;;;;;;21.88;8.13;;;10.90;99.90;;;;;;5110525;28;20055;-65
2022/01/02 05:59:05;;;;;;;16.98;8.80;;;10.90;99.90;;;;;;5104190;28;20044;-66
2022/01/02 06:01:33;;;;;;;18.45;8.70;;;11.10;99.90;;;;;;5102138;28;20043;-66
2022/01/02 06:04:00;;;;;;;11.45;6.60;;;11.10;99.90;;;;;;5092919;28;20742;-66
2022/01/02 06:06:26;;;;;;;22.83;7.70;;;10.90;99.90;;;;;;5091800;28;20384;-66
2022/01/02 06:08:51;;;;;;;16.13;6.97;;;11.00;99.90;;;;;;5090901;28;20047;-66
2022/01/02 06:11:20;;;;;;;17.17;6.13;;;11.10;99.90;;;;;;5093027;28;20048;-66
2022/01/02 06:13:45;;;;;;;15.27;5.88;;;11.00;99.90;;;;;;5096941;28;20050;-66
2022/01/02 06:16:12;;;;;;;18.55;5.88;;;11.00;99.90;;;;;;5089782;28;20052;-66
2022/01/02 06:18:38;;;;;;;21.35;6.00;;;11.10;99.90;;;;;;5089873;28;20044;-66
2022/01/02 06:21:04;;;;;;;13.25;6.38;;;11.10;99.90;;;;;;5111462;28;20096;-66
2022/01/02 06:23:29;;;;;;;11.02;5.20;;;11.20;99.90;;;;;;5110888;28;20056;-66
2022/01/02 06:25:55;;;;;;;11.40;5.03;;;11.10;99.90;;;;;;5111830;28;20089;-66
2022/01/02 06:28:20;;;;;;;16.27;6.60;;;11.30;99.90;;;;;;5111839;28;20051;-66
2022/01/02 06:30:46;;;;;;;14.35;5.63;;;11.10;99.90;;;;;;5109163;28;20055;-66
2022/01/02 06:33:15;;;;;;;22.65;6.07;;;11.20;99.90;;;;;;5110565;28;20044;-66
2022/01/02 06:35:41;;;;;;;12.48;6.40;;;11.20;99.90;;;;;;5093512;28;20546;-66
2022/01/02 06:38:16;;;;;;;12.35;6.32;;;11.20;99.90;;;;;;5100046;28;20122;-66
2022/01/02 06:40:43;;;;;;;12.57;5.90;;;11.40;99.90;;;;;;5111086;28;20171;-66
2022/01/02 06:43:08;;;;;;;16.30;6.78;;;11.30;99.90;;;;;;5110139;28;20431;-66
2022/01/02 06:45:34;;;;;;;13.98;5.70;;;11.30;99.90;;;;;;5109237;28;20181;-66
2022/01/02 06:48:01;;;;;;;14.57;5.97;;;11.30;99.90;;;;;;5111320;28;20056;-66
2022/01/02 06:50:26;;;;;;;14.45;5.75;;;11.30;99.90;;;;;;5103772;28;20051;-66
2022/01/02 06:52:53;;;;;;;16.95;6.43;;;11.40;99.90;;;;;;5100371;28;20066;-66
2022/01/02 06:55:18;;;;;;;13.27;5.20;;;11.40;99.90;;;;;;5100465;28;20047;-66
2022/01/02 06:57:44;;;;;;;10.50;5.60;;;11.30;99.90;;;;;;5108891;28;20502;-66
2022/01/02 07:00:10;;;;;;;9.43;4.35;;;11.30;99.90;;;;;;5109933;28;20803;-66
2022/01/02 07:02:35;;;;;;;17.58;5.15;;;11.30;99.90;;;;;;5110825;28;20126;-66
2022/01/02 07:05:01;;;;;;;12.65;5.75;;;11.40;99.90;;;;;;5109020;28;20046;-66
2022/01/02 07:07:26;;;;;;;14.60;4.80;;;11.30;99.90;;;;;;5111254;28;20035;-66
2022/01/02 07:09:52;;;;;;;15.63;5.45;;;11.40;99.90;;;;;;5106721;28;20094;-66
2022/01/02 07:12:18;;;;;;;11.70;4.68;;;11.30;99.90;;;;;;5103788;28;20062;-66
2022/01/02 07:14:43;;;;;;;8.70;4.78;;;11.40;99.90;;;;;;5094794;28;20119;-66
2022/01/02 07:17:09;;;;;;;11.93;4.63;;;11.40;99.90;;;;;;5089358;28;20125;-66
2022/01/02 07:19:34;;;;;;;16.45;4.60;;;11.40;99.90;;;;;;5094387;28;20052;-66
2022/01/02 07:22:00;;;;;;;11.30;5.00;;;11.30;99.90;;;;;;5103014;28;20051;-66
2022/01/02 07:24:26;;;;;;;5.95;4.05;;;11.50;99.90;;;;;;5098277;28;20552;-66
2022/01/02 07:26:53;;;;;;;11.27;4.45;;;11.40;99.90;;;;;;5088858;28;20379;-66
2022/01/02 07:29:19;;;;;;;12.07;4.75;;;11.50;99.90;;;;;;5110750;28;20075;-66
2022/01/02 07:31:47;;;;;;;7.07;3.75;;;11.40;99.90;;;;;;5110333;28;20459;-66
2022/01/02 07:34:13;;;;;;;15.18;4.72;;;11.60;99.90;;;;;;5110120;28;20044;-66
2022/01/02 07:36:44;;;;;;;10.82;3.80;;;11.50;99.90;;;;;;5108929;28;20048;-66
2022/01/02 07:39:12;;;;;;;9.80;3.80;;;11.60;99.90;;;;;;5110800;28;20134;-66
2022/01/02 07:41:37;;;;;;;11.45;3.92;;;11.40;99.90;;;;;;5109509;28;20047;-66
2022/01/02 07:44:03;;;;;;;6.93;3.42;;;11.60;99.90;;;;;;5109122;28;20051;-65
2022/01/02 07:46:30;;;;;;;13.65;3.83;;;11.50;99.90;;;;;;5103946;28;20051;-66
2022/01/02 07:48:56;;;;;;;14.93;4.75;;;11.50;99.90;;;;;;5097013;28;20084;-66
2022/01/02 07:51:22;;;;;;;12.00;4.20;;;11.60;99.90;;;;;;5091296;28;20044;-66
2022/01/02 07:53:47;;;;;;;10.90;3.80;;;11.60;99.90;;;;;;5087723;28;20077;-66
2022/01/02 07:56:14;;;;;;;8.88;3.92;;;11.60;99.90;;;;;;5088700;28;20048;-66
2022/01/02 07:58:42;;;;;;;7.55;4.88;;;11.60;99.90;;;;;;5093428;28;20573;-66
2022/01/02 08:01:08;;;;;;;15.70;3.65;;;11.60;99.90;;;;;;5086949;28;20391;-66
2022/01/02 08:03:33;;;;;;;8.40;3.70;;;11.50;99.90;;;;;;5101349;28;20050;-66
2022/01/02 08:05:59;;;;;;;9.48;4.22;;;11.50;99.90;;;;;;5090384;28;20127;-66
2022/01/02 08:08:24;;;;;;;8.70;4.32;;;11.60;99.90;;;;;;5093440;28;20056;-66
2022/01/02 08:10:50;;;;;;;11.55;4.10;;;11.60;99.90;;;;;;5093975;28;20036;-66
2022/01/02 08:13:16;;;;;;;10.90;4.28;;;11.50;99.90;;;;;;5100156;28;20413;-66
2022/01/02 08:15:41;;;;;;;17.55;4.80;;;11.40;99.90;;;;;;5092024;28;20044;-66
2022/01/02 08:18:09;;;;;;;10.85;4.75;;;11.50;99.90;;;;;;5099660;28;20048;-66
2022/01/02 08:20:34;;;;;;;11.25;4.45;;;11.40;99.90;;;;;;5106289;28;20115;-66
2022/01/02 08:23:02;;;;;;;9.20;3.97;;;11.40;99.90;;;;;;5093846;28;20751;-67
2022/01/02 08:25:28;;;;;;;11.88;5.07;;;11.40;99.90;;;;;;5118573;27;20201;-69
2022/01/02 08:27:54;;;;;;;13.82;5.07;;;11.30;99.90;;;;;;5097536;28;20584;-67
2022/01/02 08:30:20;;;;;;;9.23;4.03;;;11.30;99.90;;;;;;5090924;28;20048;-66
2022/01/02 08:32:46;;;;;;;10.80;5.35;;;11.40;99.90;;;;;;5096474;28;20422;-66
2022/01/02 08:35:11;;;;;;;6.07;4.85;;;11.30;99.90;;;;;;5109979;28;20047;-65
2022/01/02 08:37:37;;;;;;;11.55;5.28;;;11.30;99.90;;;;;;5092673;28;20051;-66
2022/01/02 08:40:04;;;;;;;17.42;4.55;;;11.40;99.90;;;;;;5095843;28;20044;-65
2022/01/02 08:42:29;;;;;;;11.80;4.50;;;11.40;99.90;;;;;;5091578;28;20060;-65
2022/01/02 08:44:55;;;;;;;7.60;4.20;;;11.30;99.90;;;;;;5091486;28;20196;-66
2022/01/02 08:47:20;;;;;;;9.65;4.75;;;11.30;99.90;;;;;;5098393;28;20066;-66
2022/01/02 08:49:46;;;;;;;10.95;4.80;;;11.30;99.90;;;;;;5112043;28;20043;-65
2022/01/02 08:52:11;;;;;;;7.60;4.63;;;11.40;99.90;;;;;;5100405;28;20512;-65
2022/01/02 08:54:38;;;;;;;10.18;4.35;;;11.30;99.90;;;;;;5091873;28;20375;-66
2022/01/02 08:57:04;;;;;;;7.68;4.40;;;11.30;99.90;;;;;;5098999;28;20089;-66
2022/01/02 08:59:30;;;;;;;7.53;3.88;;;11.40;99.90;;;;;;5097954;28;20040;-65
2022/01/02 09:01:56;;;;;;;10.13;4.20;;;11.30;99.90;;;;;;5103223;28;20063;-65
2022/01/02 09:04:22;;;;;;;6.15;3.65;;;11.30;99.90;;;;;;5111298;28;20482;-65
2022/01/02 09:06:47;;;;;;;9.63;3.70;;;11.30;99.90;;;;;;5086604;28;20125;-65
2022/01/02 09:09:13;;;;;;;5.25;3.45;;;11.40;99.90;;;;;;5087330;28;20075;-65
2022/01/02 09:11:38;;;;;;;4.10;2.83;;;11.40;99.90;;;;;;5084211;28;20047;-65
2022/01/02 09:14:07;;;;;;;3.72;3.25;;;11.30;99.90;;;;;;5091827;28;20147;-66
2022/01/02 09:16:34;;;;;;;5.80;3.42;;;11.30;99.90;;;;;;5092732;28;20089;-65
2022/01/02 09:18:59;;;;;;;7.95;3.47;;;11.20;99.90;;;;;;5091727;28;20137;-65
2022/01/02 09:21:25;;;;;;;4.95;3.85;;;11.20;99.90;;;;;;5091223;28;20406;-65
2022/01/02 09:23:50;;;;;;;7.38;4.07;;;11.20;99.90;;;;;;5090994;28;20048;-65
2022/01/02 09:26:16;;;;;;;7.15;4.57;;;11.10;99.90;;;;;;5092800;28;20048;-65
2022/01/02 09:28:45;;;;;;;6.97;4.72;;;11.20;99.90;;;;;;5081285;28;20088;-66
2022/01/02 09:31:10;;;;;;;6.32;4.68;;;11.10;99.90;;;;;;5089711;28;20052;-71
2022/01/02 09:33:36;;;;;;;11.90;5.63;;;11.10;99.90;;;;;;5110753;28;20035;-66
2022/01/02 09:36:02;;;;;;;12.25;5.18;;;11.00;99.90;;;;;;5100288;28;20116;-66
2022/01/02 09:38:27;;;;;;;9.82;4.85;;;11.10;99.90;;;;;;5091160;28;20048;-66
2022/01/02 09:40:53;;;;;;;8.55;4.70;;;11.10;99.90;;;;;;5095007;28;20055;-66
2022/01/02 09:43:19;;;;;;;8.65;4.70;;;11.10;99.90;;;;;;5097478;28;20050;-67
2022/01/02 09:45:52;;;;;;;6.55;3.83;;;11.20;99.90;;;;;;5084246;28;20059;-66
2022/01/02 09:48:17;;;;;;;10.65;5.68;;;11.20;99.90;;;;;;5083278;28;20040;-67
2022/01/02 09:50:44;;;;;;;8.02;4.72;;;11.20;99.90;;;;;;5077934;28;20040;-67
2022/01/02 09:53:10;;;;;;;8.02;4.95;;;11.20;99.90;;;;;;5080233;28;20106;-67
2022/01/02 09:55:36;;;;;;;6.78;5.25;;;11.10;99.90;;;;;;5105528;28;20495;-68
2022/01/02 09:58:04;;;;;;;11.40;5.13;;;11.10;99.90;;;;;;5092010;28;20050;-68
2022/01/02 10:00:30;;;;;;;11.35;6.13;;;11.00;99.90;;;;;;5089681;28;20059;-68
2022/01/02 10:03:01;;;;;;;11.35;5.90;;;11.00;99.90;;;;;;5076078;28;20044;-68
2022/01/02 10:05:32;;;;;;;10.05;5.78;;;11.10;99.90;;;;;;5083613;28;20044;-68
2022/01/02 10:08:17;;;;;;;16.88;5.63;;;11.10;99.90;;;;;;5088699;28;20044;-68
2022/01/02 10:10:43;;;;;;;7.75;4.85;;;10.90;99.90;;;;;;5088971;28;20044;-68
2022/01/02 10:13:10;;;;;;;15.18;5.05;;;11.10;99.90;;;;;;5089621;28;20055;-68
2022/01/02 10:15:35;;;;;;;16.52;5.75;;;10.90;99.90;;;;;;5083551;28;20047;-68
2022/01/02 10:18:07;;;;;;;8.77;5.55;;;11.10;99.90;;;;;;5093620;28;20060;-68
2022/01/02 10:20:47;;;;;;;9.73;5.50;;;11.00;99.90;;;;;;5099265;28;20048;-69
2022/01/02 10:23:16;;;;;;;10.32;6.80;;;10.90;99.90;;;;;;5095401;28;20482;-69
2022/01/02 10:25:43;;;;;;;9.13;5.97;;;11.00;99.90;;;;;;5100066;28;20119;-68
2022/01/02 10:28:35;;;;;;;14.65;6.68;;;11.10;99.90;;;;;;5110782;28;20056;-68
2022/01/02 10:31:07;;;;;;;12.13;6.20;;;11.00;99.90;;;;;;5088201;28;20055;-68
2022/01/02 10:33:52;;;;;;;11.50;5.65;;;11.10;99.90;;;;;;5080276;28;20483;-68
2022/01/02 10:36:26;;;;;;;17.13;7.95;;;11.20;99.90;;;;;;5078622;28;20123;-68
2022/01/02 10:39:06;;;;;;;10.55;6.47;;;11.10;99.90;;;;;;5091016;28;20044;-68
2022/01/02 10:41:38;;;;;;;10.15;7.35;;;11.20;99.90;;;;;;5088880;28;20410;-68
2022/01/02 10:44:34;;;;;;;18.50;7.47;;;11.30;99.90;;;;;;5088012;28;20055;-68
2022/01/02 10:47:15;;;;;;;14.02;7.80;;;11.20;99.90;;;;;;5090987;28;20180;-68
2022/01/02 10:49:53;;;;;;;12.68;7.88;;;11.30;99.90;;;;;;5088396;28;20143;-68
2022/01/02 10:52:23;;;;;;;19.83;6.93;;;11.30;99.90;;;;;;5089368;28;20052;-68
2022/01/02 10:54:49;;;;;;;18.30;5.82;;;11.20;99.90;;;;;;5089455;28;20078;-68
2022/01/02 10:57:15;;;;;;;15.65;6.65;;;11.30;99.90;;;;;;5088597;28;20471;-68
2022/01/02 10:59:43;;;;;;;16.52;6.47;;;11.30;99.90;;;;;;5087406;28;20041;-68
2022/01/02 11:02:11;;;;;;;10.00;5.82;;;11.30;99.90;;;;;;5083000;28;20055;-68
2022/01/02 11:04:56;;;;;;;11.52;5.10;;;11.30;99.90;;;;;;5088893;28;20723;-68
2022/01/02 11:07:24;;;;;;;16.50;5.45;;;11.30;99.90;;;;;;5088919;28;20044;-68
2022/01/02 11:09:52;;;;;;;21.25;6.25;;;11.40;99.90;;;;;;5086229;28;20925;-68
2022/01/02 11:12:18;;;;;;;17.63;5.30;;;11.50;99.90;;;;;;5082133;28;20324;-69
2022/01/02 11:14:45;;;;;;;12.32;4.60;;;11.40;99.90;;;;;;5088136;28;20055;-68
2022/01/02 11:17:12;;;;;;;14.63;5.65;;;11.40;99.90;;;;;;5088441;28;20537;-68
2022/01/02 11:19:38;;;;;;;17.23;4.80;;;11.50;99.90;;;;;;5081918;28;20055;-67
2022/01/02 11:22:07;;;;;;;11.73;4.50;;;11.50;99.90;;;;;;5074952;28;20106;-67
2022/01/02 11:24:42;;;;;;;18.50;5.38;;;11.50;99.90;;;;;;5070600;28;20052;-68
2022/01/02 11:27:33;;;;;;;14.02;4.97;;;11.50;99.90;;;;;;5076670;28;20056;-68
2022/01/02 11:30:31;;;;;;;14.10;4.55;;;11.50;99.90;;;;;;5069907;28;20607;-68
2022/01/02 11:33:19;;;;;;;16.30;5.32;;;11.40;99.90;;;;;;5068589;28;20087;-67
2022/01/02 11:35:48;;;;;;;13.18;4.85;;;11.50;99.90;;;;;;5085688;28;20576;-67
2022/01/02 11:38:15;;;;;;;14.38;4.80;;;11.40;99.90;;;;;;5069060;28;20076;-66
2022/01/02 11:40:53;;;;;;;11.50;4.47;;;11.50;99.90;;;;;;5068481;28;20422;-67
2022/01/02 11:43:46;;;;;;;11.48;4.30;;;11.40;99.90;;;;;;5070711;28;20574;-66
2022/01/02 11:46:45;;;;;;;11.75;4.15;;;11.40;99.90;;;;;;5070076;28;20106;-66
2022/01/02 11:49:17;;;;;;;13.02;4.47;;;11.40;99.90;;;;;;5072134;28;20106;-66
2022/01/02 11:51:51;;;;;;;12.95;4.80;;;11.30;99.90;;;;;;5080702;28;20079;-66
2022/01/02 11:54:29;;;;;;;15.75;4.57;;;11.30;99.90;;;;;;5068571;28;20517;-66
2022/01/02 11:57:15;;;;;;;13.98;4.50;;;11.30;99.90;;;;;;5070664;28;20044;-67
2022/01/02 11:59:45;;;;;;;18.52;5.05;;;11.30;99.90;;;;;;5068964;28;20048;-67
2022/01/02 12:02:24;;;;;;;16.65;4.88;;;11.40;99.90;;;;;;5079917;28;20067;-67
2022/01/02 12:04:59;;;;;;;12.07;3.85;;;11.40;99.90;;;;;;5068581;28;20706;-67
2022/01/02 12:07:37;;;;;;;18.88;4.57;;;11.40;99.90;;;;;;5070927;28;20544;-66
2022/01/02 12:10:15;;;;;;;8.43;3.50;;;11.40;99.90;;;;;;5096461;28;20048;-67
2022/01/02 12:12:59;;;;;;;12.70;4.20;;;11.40;99.90;;;;;;5081115;28;20051;-66
2022/01/02 12:15:30;;;;;;;17.55;4.70;;;11.40;99.90;;;;;;5068397;28;20500;-66
2022/01/02 12:18:16;;;;;;;17.47;4.83;;;11.50;99.90;;;;;;5069421;28;20048;-66
2022/01/02 12:20:52;;;;;;;11.70;4.93;;;11.50;99.90;;;;;;5084836;28;20310;-67
2022/01/02 12:23:29;;;;;;;15.27;3.78;;;11.60;99.90;;;;;;5086402;28;20091;-67
2022/01/02 12:26:09;;;;;;;10.85;3.90;;;11.50;99.90;;;;;;5088879;28;20151;-67
2022/01/02 12:28:48;;;;;;;17.88;3.90;;;11.60;99.90;;;;;;5093827;28;20521;-67
2022/01/02 12:31:18;;;;;;;16.65;4.07;;;11.50;99.90;;;;;;5108758;28;20063;-67
2022/01/02 12:33:45;;;;;;;14.10;3.45;;;11.50;99.90;;;;;;5108820;28;20444;-67
2022/01/02 12:36:15;;;;;;;12.48;3.45;;;11.50;99.90;;;;;;5109807;28;20074;-66
2022/01/02 12:38:52;;;;;;;12.15;3.95;;;11.50;99.90;;;;;;5109767;28;20058;-67
2022/01/02 12:41:24;;;;;;;17.27;3.97;;;11.50;99.90;;;;;;5110430;28;20560;-67
2022/01/02 12:43:55;;;;;;;18.73;3.72;;;11.50;99.90;;;;;;5107825;28;20066;-67
2022/01/02 12:46:44;;;;;;;17.70;4.28;;;11.50;99.90;;;;;;5108791;28;20493;-66
2022/01/02 12:49:28;;;;;;;10.98;3.03;;;11.40;99.90;;;;;;5109550;28;20056;-67
2022/01/02 12:51:59;;;;;;;20.13;3.17;;;11.40;99.90;;;;;;5108647;28;20047;-67
2022/01/02 12:54:28;;;;;;;13.15;3.25;;;11.40;99.90;;;;;;5112629;28;20427;-67